Time;durP1;ratioP1;P1;durP2;ratioP2;P2;SDS_P1;SDS_P2;PMS_P1;PMS_P2;Temp;Humidity;BMP_temperature;BMP_pressure;BME280_temperature;BME280_humidity;BME280_pressure;Samples;Min_cycle;Max_cycle;Signal;HPM_P1;HPM_P2
2023/09/04 00:00:42;;;;;;;6.57;4.32;;;13.40;99.90;;;;;;5028926;28;20492;-48
2023/09/04 00:03:08;;;;;;;6.60;5.03;;;13.50;99.90;;;;;;5028611;28;20030;-45
2023/09/04 00:05:34;;;;;;;6.88;4.40;;;13.50;99.90;;;;;;5029330;28;20029;-46
2023/09/04 00:08:00;;;;;;;7.28;4.40;;;13.50;99.90;;;;;;5032447;28;20013;-46
2023/09/04 00:10:25;;;;;;;5.80;4.57;;;13.40;99.90;;;;;;5032470;28;20387;-49
2023/09/04 00:12:51;;;;;;;12.10;5.47;;;13.50;99.90;;;;;;5032181;28;20041;-48
2023/09/04 00:15:16;;;;;;;5.95;4.20;;;13.30;99.90;;;;;;5031655;28;20080;-47
2023/09/04 00:17:43;;;;;;;8.45;4.88;;;13.30;99.90;;;;;;5047854;28;20075;-48
2023/09/04 00:20:11;;;;;;;6.75;4.03;;;13.20;99.90;;;;;;5031852;28;20025;-45
2023/09/04 00:22:36;;;;;;;11.18;5.03;;;13.20;99.90;;;;;;5032387;28;20399;-46
2023/09/04 00:25:02;;;;;;;5.32;4.80;;;13.10;99.90;;;;;;5031436;28;20026;-45
2023/09/04 00:27:27;;;;;;;5.88;4.47;;;13.00;99.90;;;;;;5019201;28;20018;-46
2023/09/04 00:29:53;;;;;;;6.53;4.85;;;13.10;99.90;;;;;;5012404;28;20022;-45
2023/09/04 00:32:18;;;;;;;8.30;4.68;;;13.10;99.90;;;;;;5011898;28;20022;-45
2023/09/04 00:34:44;;;;;;;5.53;4.78;;;13.00;99.90;;;;;;5011387;28;20384;-45
2023/09/04 00:37:10;;;;;;;8.32;5.32;;;13.10;99.90;;;;;;5011785;28;20494;-47
2023/09/04 00:39:36;;;;;;;5.85;4.38;;;13.20;99.90;;;;;;5010844;28;20017;-45
2023/09/04 00:42:02;;;;;;;6.50;4.50;;;13.20;99.90;;;;;;5011861;28;20487;-48
2023/09/04 00:44:27;;;;;;;11.95;4.78;;;13.10;99.90;;;;;;5012120;28;20197;-47
2023/09/04 00:46:53;;;;;;;6.72;4.47;;;13.00;99.90;;;;;;5011905;28;20022;-46
2023/09/04 00:49:19;;;;;;;7.70;4.55;;;12.90;99.90;;;;;;5011757;28;20018;-45
2023/09/04 00:51:44;;;;;;;8.90;4.90;;;12.80;99.90;;;;;;5011970;28;20056;-45
2023/09/04 00:54:11;;;;;;;9.13;5.60;;;12.80;99.90;;;;;;5013700;28;20116;-46
2023/09/04 00:56:37;;;;;;;8.27;4.93;;;12.80;99.90;;;;;;5031171;28;20031;-47
2023/09/04 00:59:02;;;;;;;5.28;4.47;;;12.80;99.90;;;;;;5031326;28;20395;-45
2023/09/04 01:01:29;;;;;;;5.40;4.45;;;12.80;99.90;;;;;;5023187;28;20067;-46
2023/09/04 01:03:54;;;;;;;6.25;4.97;;;12.60;99.90;;;;;;5023344;28;20464;-46
2023/09/04 01:06:20;;;;;;;6.43;5.10;;;12.60;99.90;;;;;;5010832;28;20026;-45
2023/09/04 01:08:46;;;;;;;5.97;5.00;;;12.60;99.90;;;;;;5025075;28;20017;-45
2023/09/04 01:11:21;;;;;;;7.03;4.65;;;12.50;99.90;;;;;;5031018;28;20030;-46
2023/09/04 01:13:55;;;;;;;5.40;4.15;;;12.50;99.90;;;;;;5031193;28;20113;-46
2023/09/04 01:16:22;;;;;;;5.82;4.53;;;12.40;99.90;;;;;;5030367;28;20029;-46
2023/09/04 01:18:48;;;;;;;6.40;4.70;;;12.40;99.90;;;;;;5030345;28;20022;-45
2023/09/04 01:21:14;;;;;;;6.20;4.70;;;12.40;99.90;;;;;;5031222;28;20302;-45
2023/09/04 01:23:39;;;;;;;5.97;4.88;;;12.40;99.90;;;;;;5030812;28;20533;-48
2023/09/04 01:26:25;;;;;;;6.28;4.35;;;12.40;99.90;;;;;;5030379;28;20024;-46
2023/09/04 01:29:04;;;;;;;6.35;4.97;;;12.30;99.90;;;;;;5030969;28;20013;-46
2023/09/04 01:31:33;;;;;;;10.38;5.25;;;12.30;99.90;;;;;;5030908;28;20049;-46
2023/09/04 01:34:05;;;;;;;7.20;5.25;;;12.30;99.90;;;;;;5030499;28;20017;-46
2023/09/04 01:36:33;;;;;;;7.53;5.05;;;12.30;99.90;;;;;;5030248;28;20509;-46
2023/09/04 01:38:59;;;;;;;5.85;4.70;;;12.30;99.90;;;;;;5030690;28;20459;-46
2023/09/04 01:41:24;;;;;;;5.70;4.95;;;12.20;99.90;;;;;;5029312;28;20055;-49
2023/09/04 01:43:50;;;;;;;6.03;4.95;;;12.20;99.90;;;;;;5030502;28;20490;-46
2023/09/04 01:46:15;;;;;;;4.72;4.20;;;12.20;99.90;;;;;;5028570;28;20116;-45
2023/09/04 01:48:41;;;;;;;7.45;4.18;;;12.20;99.90;;;;;;5030726;28;20513;-47
2023/09/04 01:51:06;;;;;;;7.32;4.93;;;12.10;99.90;;;;;;5030271;28;20071;-44
2023/09/04 01:53:32;;;;;;;6.88;4.82;;;12.20;99.90;;;;;;5030288;28;20052;-45
2023/09/04 01:55:59;;;;;;;6.90;4.80;;;12.10;99.90;;;;;;5029628;28;20029;-45
2023/09/04 01:58:26;;;;;;;6.65;5.25;;;12.20;99.90;;;;;;5030732;28;20440;-47
2023/09/04 02:00:51;;;;;;;6.00;4.38;;;12.10;99.90;;;;;;5030137;28;20021;-45
2023/09/04 02:03:17;;;;;;;5.20;4.57;;;12.00;99.90;;;;;;5029752;28;20029;-46
2023/09/04 02:05:42;;;;;;;5.20;4.45;;;12.10;99.90;;;;;;5027286;28;20033;-45
2023/09/04 02:08:08;;;;;;;4.97;4.47;;;12.10;99.90;;;;;;5030212;28;20475;-46
2023/09/04 02:10:35;;;;;;;5.65;4.90;;;12.00;99.90;;;;;;5029925;28;20203;-45
2023/09/04 02:13:01;;;;;;;5.75;5.10;;;12.10;99.90;;;;;;5045290;28;20272;-45
2023/09/04 02:15:26;;;;;;;6.05;5.18;;;12.00;99.90;;;;;;5029960;28;20495;-47
2023/09/04 02:17:52;;;;;;;6.80;5.18;;;12.00;99.90;;;;;;5030014;28;20096;-46
2023/09/04 02:20:18;;;;;;;5.20;4.45;;;12.00;99.90;;;;;;5029998;28;20445;-46
2023/09/04 02:22:44;;;;;;;7.95;5.43;;;12.00;99.90;;;;;;5029759;28;20029;-45
2023/09/04 02:25:09;;;;;;;6.50;5.45;;;12.00;99.90;;;;;;5044379;28;20029;-44
2023/09/04 02:27:35;;;;;;;7.85;5.50;;;12.00;99.90;;;;;;5030107;28;20068;-45
2023/09/04 02:30:03;;;;;;;5.78;5.13;;;12.00;99.90;;;;;;5029213;28;20517;-44
2023/09/04 02:32:29;;;;;;;5.95;5.35;;;11.90;99.90;;;;;;5045174;28;20072;-44
2023/09/04 02:34:54;;;;;;;6.15;4.72;;;11.90;99.90;;;;;;5029540;28;20479;-44
2023/09/04 02:37:20;;;;;;;6.20;4.68;;;11.90;99.90;;;;;;5029330;28;20509;-44
2023/09/04 02:39:45;;;;;;;6.30;5.20;;;11.90;99.90;;;;;;5029875;28;20025;-45
2023/09/04 02:42:11;;;;;;;7.22;5.30;;;11.90;99.90;;;;;;5029296;28;20060;-45
2023/09/04 02:44:56;;;;;;;6.05;5.43;;;12.00;99.90;;;;;;5044368;28;20430;-44
2023/09/04 02:47:22;;;;;;;5.80;5.07;;;11.90;99.90;;;;;;5029319;28;20442;-45
2023/09/04 02:49:47;;;;;;;8.18;6.15;;;11.90;99.90;;;;;;5017159;28;20040;-46
2023/09/04 02:52:14;;;;;;;7.32;5.25;;;11.90;99.90;;;;;;5029033;28;20033;-44
2023/09/04 02:54:40;;;;;;;7.82;5.65;;;11.80;99.90;;;;;;5028757;28;20100;-45
2023/09/04 02:57:06;;;;;;;6.97;4.97;;;11.80;99.90;;;;;;5029242;28;20019;-44
2023/09/04 02:59:34;;;;;;;5.78;4.80;;;11.80;99.90;;;;;;5017402;28;20075;-44
2023/09/04 03:01:59;;;;;;;5.78;4.90;;;11.80;99.90;;;;;;5017000;28;20017;-44
2023/09/04 03:04:25;;;;;;;8.32;5.57;;;11.80;99.90;;;;;;5028841;28;20033;-44
2023/09/04 03:06:50;;;;;;;6.07;5.45;;;11.90;99.90;;;;;;5029218;28;20029;-46
2023/09/04 03:09:17;;;;;;;6.53;4.93;;;11.90;99.90;;;;;;5028338;28;20152;-45
2023/09/04 03:11:42;;;;;;;6.07;5.15;;;11.90;99.90;;;;;;5024384;28;20037;-44
2023/09/04 03:14:08;;;;;;;6.85;5.80;;;11.90;99.90;;;;;;5029058;28;20410;-44
2023/09/04 03:16:33;;;;;;;8.30;5.97;;;11.80;99.90;;;;;;5028944;28;20040;-44
2023/09/04 03:18:59;;;;;;;6.65;4.88;;;11.70;99.90;;;;;;5028500;28;20032;-45
2023/09/04 03:21:24;;;;;;;5.72;4.90;;;11.70;99.90;;;;;;5021087;28;20364;-45
2023/09/04 03:23:51;;;;;;;6.20;5.60;;;11.60;99.90;;;;;;5029213;28;20104;-46
2023/09/04 03:26:17;;;;;;;7.72;6.00;;;11.70;99.90;;;;;;5043683;28;20025;-44
2023/09/04 03:28:42;;;;;;;5.57;4.90;;;11.60;99.90;;;;;;5025391;28;20563;-44
2023/09/04 03:31:14;;;;;;;6.03;5.00;;;11.60;99.90;;;;;;5028546;28;20100;-44
2023/09/04 03:33:40;;;;;;;9.30;5.45;;;11.60;99.90;;;;;;5028993;28;20021;-46
2023/09/04 03:36:06;;;;;;;6.45;4.53;;;11.50;99.90;;;;;;5028680;28;20414;-44
2023/09/04 03:38:32;;;;;;;5.25;4.75;;;11.50;99.90;;;;;;5025191;28;20037;-45
2023/09/04 03:40:57;;;;;;;6.57;5.50;;;11.50;99.90;;;;;;5025982;28;20049;-45
2023/09/04 03:43:23;;;;;;;6.75;5.75;;;11.60;99.90;;;;;;5032907;28;20068;-45
2023/09/04 03:45:48;;;;;;;6.60;5.72;;;11.50;99.90;;;;;;5032226;28;20084;-45
2023/09/04 03:48:14;;;;;;;5.68;5.15;;;11.50;99.90;;;;;;5031108;28;20025;-47
2023/09/04 03:50:39;;;;;;;6.63;5.40;;;11.50;99.90;;;;;;5025640;28;20410;-44
2023/09/04 03:53:05;;;;;;;7.53;4.95;;;11.40;99.90;;;;;;5032537;28;20056;-47
2023/09/04 03:55:32;;;;;;;5.65;4.75;;;11.40;99.90;;;;;;5032120;28;20471;-45
2023/09/04 03:57:58;;;;;;;7.50;5.05;;;11.40;99.90;;;;;;5033121;28;20024;-46
2023/09/04 04:00:24;;;;;;;5.35;4.85;;;11.40;99.90;;;;;;5026301;28;20068;-45
2023/09/04 04:02:51;;;;;;;8.88;5.45;;;11.40;99.90;;;;;;5011568;28;20407;-46
2023/09/04 04:05:17;;;;;;;6.18;4.80;;;11.40;99.90;;;;;;5012359;28;20030;-45
2023/09/04 04:07:44;;;;;;;7.22;5.28;;;11.30;99.90;;;;;;5026268;28;20083;-44
2023/09/04 04:10:10;;;;;;;8.82;6.93;;;11.30;99.90;;;;;;5030309;28;20426;-44
2023/09/04 04:12:36;;;;;;;11.18;7.65;;;11.40;99.90;;;;;;5023922;28;20018;-46
2023/09/04 04:15:07;;;;;;;8.27;5.97;;;11.50;99.90;;;;;;5031950;28;20698;-46
2023/09/04 04:17:32;;;;;;;;;;;11.50;99.90;;;;;;5032724;28;20109;-45
2023/09/04 04:19:58;;;;;;;7.88;5.78;;;11.50;99.90;;;;;;5043885;28;19983;-45
2023/09/04 04:22:24;;;;;;;10.25;5.95;;;11.40;99.90;;;;;;5025593;28;20379;-47
2023/09/04 04:24:50;;;;;;;9.27;6.53;;;11.40;99.90;;;;;;5031691;28;20600;-45
2023/09/04 04:27:17;;;;;;;7.10;5.70;;;11.30;99.90;;;;;;5032024;28;20097;-45
2023/09/04 04:29:48;;;;;;;7.82;5.53;;;11.30;99.90;;;;;;5029998;28;20023;-46
2023/09/04 04:32:14;;;;;;;10.25;6.50;;;11.30;99.90;;;;;;5021763;28;20021;-45
2023/09/04 04:34:41;;;;;;;7.63;5.80;;;11.30;99.90;;;;;;5023729;28;20032;-46
2023/09/04 04:37:06;;;;;;;6.72;5.43;;;11.20;99.90;;;;;;5006991;28;20022;-45
2023/09/04 04:39:32;;;;;;;8.10;5.53;;;11.20;99.90;;;;;;5024124;28;20216;-46
2023/09/04 04:41:58;;;;;;;7.18;6.18;;;11.20;99.90;;;;;;5025370;28;20053;-44
2023/09/04 04:44:23;;;;;;;11.85;7.10;;;11.20;99.90;;;;;;5029918;28;20021;-44
2023/09/04 04:46:49;;;;;;;10.90;6.35;;;11.20;99.90;;;;;;5031602;28;20453;-47
2023/09/04 04:49:20;;;;;;;9.15;6.05;;;11.20;99.90;;;;;;5023573;28;20540;-46
2023/09/04 04:51:45;;;;;;;8.48;6.15;;;11.20;99.90;;;;;;5025248;28;20080;-46
2023/09/04 04:54:12;;;;;;;9.13;6.38;;;11.20;99.90;;;;;;5028065;28;20025;-45
2023/09/04 04:56:39;;;;;;;6.93;6.13;;;11.20;99.90;;;;;;5031139;28;20029;-45
2023/09/04 04:59:05;;;;;;;8.60;6.13;;;11.20;99.90;;;;;;5029982;28;20376;-44
2023/09/04 05:01:30;;;;;;;9.35;6.47;;;11.20;99.90;;;;;;5029193;28;20037;-45
2023/09/04 05:03:56;;;;;;;11.55;6.32;;;11.30;99.90;;;;;;5030703;28;20036;-45
2023/09/04 05:06:22;;;;;;;6.85;6.00;;;11.20;99.90;;;;;;5028962;28;20113;-45
2023/09/04 05:08:47;;;;;;;9.82;6.35;;;11.30;99.90;;;;;;5019386;28;20018;-46
2023/09/04 05:11:13;;;;;;;11.43;6.80;;;11.40;99.90;;;;;;5017126;28;20099;-46
2023/09/04 05:13:38;;;;;;;10.13;7.68;;;11.50;99.90;;;;;;5033539;28;20025;-47
2023/09/04 05:16:04;;;;;;;11.30;7.00;;;11.60;99.90;;;;;;5018066;28;20029;-47
2023/09/04 05:18:31;;;;;;;7.90;6.47;;;11.60;99.90;;;;;;5018732;28;20036;-44
2023/09/04 05:20:57;;;;;;;8.63;6.88;;;11.60;99.90;;;;;;5021490;28;20276;-45
2023/09/04 05:23:22;;;;;;;11.63;7.05;;;11.70;99.90;;;;;;5020749;28;20084;-47
2023/09/04 05:25:52;;;;;;;9.98;7.45;;;11.80;99.90;;;;;;5023614;28;20030;-48
2023/09/04 05:28:17;;;;;;;11.82;6.68;;;11.90;99.90;;;;;;5036163;28;20022;-45
2023/09/04 05:30:43;;;;;;;7.82;6.50;;;12.00;99.90;;;;;;5037617;28;20079;-45
2023/09/04 05:33:09;;;;;;;8.43;6.57;;;12.00;99.90;;;;;;5021560;28;20487;-45
2023/09/04 05:35:34;;;;;;;7.90;6.35;;;12.00;99.90;;;;;;5035618;28;20117;-46
2023/09/04 05:38:00;;;;;;;7.75;5.82;;;12.10;99.90;;;;;;5020775;28;20049;-46
2023/09/04 05:40:25;;;;;;;8.82;6.30;;;12.10;99.90;;;;;;5022870;28;20022;-45
2023/09/04 05:42:51;;;;;;;7.43;6.25;;;12.20;99.90;;;;;;5020417;28;20500;-44
2023/09/04 05:45:17;;;;;;;6.10;5.30;;;12.20;99.90;;;;;;5019378;28;20487;-45
2023/09/04 05:47:43;;;;;;;7.85;5.25;;;12.30;99.90;;;;;;5021910;28;20017;-45
2023/09/04 05:50:10;;;;;;;10.43;6.53;;;12.30;99.90;;;;;;5022131;28;20467;-45
2023/09/04 05:52:36;;;;;;;8.35;6.32;;;12.30;99.90;;;;;;5029802;28;20382;-44
2023/09/04 05:55:02;;;;;;;6.80;5.22;;;12.30;99.90;;;;;;5038709;28;20033;-45
2023/09/04 05:57:28;;;;;;;7.65;5.78;;;12.30;99.90;;;;;;5023308;28;20032;-47
2023/09/04 05:59:53;;;;;;;6.55;5.53;;;12.50;99.90;;;;;;5030307;28;20072;-49
2023/09/04 06:02:19;;;;;;;7.88;5.70;;;12.50;99.90;;;;;;5030317;28;20075;-49
2023/09/04 06:04:44;;;;;;;7.22;5.28;;;12.60;99.90;;;;;;5044176;28;20108;-50
2023/09/04 06:07:10;;;;;;;7.78;5.15;;;12.70;99.90;;;;;;5021756;28;20052;-48
2023/09/04 06:09:39;;;;;;;7.50;5.70;;;12.70;99.90;;;;;;5029237;28;20024;-47
2023/09/04 06:12:09;;;;;;;7.45;5.30;;;12.70;99.90;;;;;;5045379;28;20114;-53
2023/09/04 06:14:35;;;;;;;5.70;5.20;;;12.80;99.90;;;;;;5027563;28;20030;-53
2023/09/04 06:17:00;;;;;;;5.32;4.75;;;12.80;99.90;;;;;;5023261;28;20037;-54
2023/09/04 06:19:27;;;;;;;7.68;4.85;;;12.90;99.90;;;;;;5029853;28;20411;-54
2023/09/04 06:21:53;;;;;;;8.18;5.00;;;12.90;99.90;;;;;;5023644;28;20548;-54
2023/09/04 06:24:19;;;;;;;5.50;4.78;;;13.00;99.90;;;;;;5017562;28;20129;-54
2023/09/04 06:26:44;;;;;;;5.97;5.22;;;13.10;99.90;;;;;;5024057;28;20108;-53
2023/09/04 06:29:10;;;;;;;6.60;5.10;;;13.10;99.90;;;;;;5029675;28;20600;-54
2023/09/04 06:31:35;;;;;;;6.57;5.13;;;13.20;99.90;;;;;;5029511;28;20386;-54
2023/09/04 06:34:03;;;;;;;6.22;5.60;;;13.30;99.90;;;;;;5029607;28;20037;-54
2023/09/04 06:36:29;;;;;;;7.20;4.90;;;13.40;99.90;;;;;;5024727;28;20475;-54
2023/09/04 06:38:54;;;;;;;7.00;5.45;;;13.50;99.90;;;;;;5020183;28;20041;-53
2023/09/04 06:41:21;;;;;;;7.32;4.90;;;13.60;99.90;;;;;;5029272;28;20036;-54
2023/09/04 06:43:47;;;;;;;5.03;4.50;;;13.70;99.90;;;;;;5021828;28;20034;-54
2023/09/04 06:46:13;;;;;;;5.60;4.57;;;13.70;99.90;;;;;;5024346;28;20022;-54
2023/09/04 06:48:39;;;;;;;4.75;4.20;;;13.80;99.90;;;;;;5023155;28;20030;-54
2023/09/04 06:51:05;;;;;;;5.63;5.03;;;13.90;99.90;;;;;;5029347;28;20501;-54
2023/09/04 06:53:30;;;;;;;5.07;4.57;;;14.00;99.90;;;;;;5029246;28;20513;-54
2023/09/04 06:55:56;;;;;;;6.35;4.40;;;14.10;99.90;;;;;;5029348;28;20029;-54
2023/09/04 06:58:22;;;;;;;4.68;4.15;;;14.20;99.90;;;;;;5020926;28;20025;-54
2023/09/04 07:00:47;;;;;;;5.95;4.28;;;14.30;99.90;;;;;;5023178;28;20390;-54
2023/09/04 07:03:13;;;;;;;5.72;4.65;;;14.50;99.90;;;;;;5014309;28;20036;-55
2023/09/04 07:05:39;;;;;;;4.95;4.38;;;14.60;99.90;;;;;;5028030;28;20405;-55
2023/09/04 07:08:05;;;;;;;6.18;4.10;;;14.70;99.90;;;;;;5023001;28;20356;-54
2023/09/04 07:10:31;;;;;;;5.13;4.40;;;14.80;99.90;;;;;;5021173;28;20121;-54
2023/09/04 07:13:00;;;;;;;4.75;4.28;;;15.00;99.90;;;;;;5029218;28;20017;-54
2023/09/04 07:15:25;;;;;;;6.70;4.75;;;15.10;99.90;;;;;;5028210;28;20045;-55
2023/09/04 07:17:51;;;;;;;6.63;4.85;;;15.20;99.90;;;;;;5022386;28;20419;-54
2023/09/04 07:20:16;;;;;;;5.30;4.45;;;15.40;99.90;;;;;;5026687;28;20489;-54
2023/09/04 07:22:42;;;;;;;4.93;4.40;;;15.50;99.90;;;;;;5033121;28;20033;-54
2023/09/04 07:25:07;;;;;;;6.97;5.03;;;15.70;99.90;;;;;;5032988;28;20041;-54
2023/09/04 07:27:33;;;;;;;6.20;4.82;;;16.00;99.90;;;;;;5030512;28;20088;-54
2023/09/04 07:29:59;;;;;;;4.28;3.88;;;16.60;99.90;;;;;;5026965;28;20029;-54
2023/09/04 07:32:25;;;;;;;4.50;3.65;;;17.40;99.90;;;;;;5030664;28;20386;-54
2023/09/04 07:34:55;;;;;;;5.28;4.00;;;18.10;99.90;;;;;;5047710;28;20021;-55
2023/09/04 07:37:27;;;;;;;4.85;4.15;;;18.60;99.90;;;;;;5030376;28;20479;-54
2023/09/04 07:39:53;;;;;;;4.80;4.35;;;19.00;99.90;;;;;;5030399;28;20034;-54
2023/09/04 07:42:19;;;;;;;6.43;3.85;;;19.00;99.90;;;;;;5033164;28;20239;-54
2023/09/04 07:44:45;;;;;;;4.97;3.80;;;19.00;99.90;;;;;;5030492;28;20034;-54
2023/09/04 07:47:10;;;;;;;5.57;3.50;;;19.40;99.90;;;;;;5042811;28;20379;-54
2023/09/04 07:49:36;;;;;;;5.60;3.10;;;19.90;99.90;;;;;;5022674;28;20049;-54
2023/09/04 07:52:02;;;;;;;4.10;3.10;;;20.50;99.90;;;;;;5020957;28;20037;-54
2023/09/04 07:54:27;;;;;;;3.70;2.75;;;21.20;99.90;;;;;;5019950;28;20407;-52
2023/09/04 07:56:53;;;;;;;3.08;2.40;;;21.70;99.90;;;;;;5038509;28;20021;-52
2023/09/04 07:59:18;;;;;;;5.47;2.33;;;22.10;99.90;;;;;;5021807;28;20098;-52
2023/09/04 08:01:44;;;;;;;3.25;2.45;;;22.70;99.90;;;;;;5029994;28;21191;-52
2023/09/04 08:04:09;;;;;;;2.20;1.80;;;23.10;99.90;;;;;;5029980;28;20056;-52
2023/09/04 08:06:35;;;;;;;4.22;2.10;;;23.60;99.90;;;;;;5024436;28;20060;-51
2023/09/04 08:09:01;;;;;;;4.00;2.20;;;23.70;99.10;;;;;;5021917;28;20013;-52
2023/09/04 08:11:26;;;;;;;4.82;2.03;;;24.20;97.60;;;;;;5043060;28;20036;-52
2023/09/04 08:13:52;;;;;;;2.38;2.08;;;24.70;95.40;;;;;;5031927;28;20271;-52
2023/09/04 08:16:17;;;;;;;2.33;2.08;;;24.50;95.80;;;;;;5024382;28;20034;-52
2023/09/04 08:18:43;;;;;;;2.08;1.88;;;25.10;94.80;;;;;;5026747;28;20025;-52
2023/09/04 08:21:09;;;;;;;2.05;1.85;;;26.00;92.80;;;;;;5022888;28;20021;-52
2023/09/04 08:23:35;;;;;;;6.00;2.00;;;26.90;92.40;;;;;;5024278;28;20079;-52
2023/09/04 08:26:01;;;;;;;3.42;1.45;;;28.10;87.90;;;;;;5024910;28;20077;-52
2023/09/04 08:28:26;;;;;;;4.30;1.80;;;28.60;86.30;;;;;;5024408;28;20156;-53
2023/09/04 08:30:52;;;;;;;2.45;1.50;;;29.10;85.70;;;;;;5019539;28;20510;-53
2023/09/04 08:33:17;;;;;;;2.00;1.55;;;30.10;81.70;;;;;;5027227;28;20483;-53
2023/09/04 08:35:43;;;;;;;4.50;2.10;;;31.00;81.20;;;;;;5026063;28;20017;-53
2023/09/04 08:38:08;;;;;;;3.85;1.88;;;31.50;74.10;;;;;;5030937;28;20076;-53
2023/09/04 08:40:36;;;;;;;3.80;1.77;;;32.20;72.60;;;;;;5030820;28;20025;-53
2023/09/04 08:43:03;;;;;;;1.80;1.30;;;32.10;73.70;;;;;;5016291;28;20043;-53
2023/09/04 08:45:29;;;;;;;2.40;1.80;;;32.60;73.20;;;;;;5025781;28;20025;-53
2023/09/04 08:47:55;;;;;;;2.95;2.03;;;33.00;71.90;;;;;;5025465;28;20025;-53
2023/09/04 08:50:23;;;;;;;1.70;1.60;;;33.20;70.70;;;;;;5031453;28;20026;-53
2023/09/04 08:52:50;;;;;;;2.70;1.60;;;32.90;67.40;;;;;;5040886;28;20026;-53
2023/09/04 08:55:18;;;;;;;2.75;1.55;;;33.20;67.20;;;;;;5031135;28;20017;-53
2023/09/04 08:57:43;;;;;;;2.38;1.90;;;33.90;67.10;;;;;;5030746;28;20025;-53
2023/09/04 09:00:10;;;;;;;2.85;1.73;;;34.10;64.50;;;;;;5031415;28;20036;-53
2023/09/04 09:02:37;;;;;;;2.30;1.80;;;34.40;64.60;;;;;;5043585;28;20036;-53
2023/09/04 09:05:03;;;;;;;1.75;1.38;;;34.40;61.60;;;;;;5027704;28;20091;-53
2023/09/04 09:07:30;;;;;;;2.10;1.65;;;34.30;62.50;;;;;;5019592;28;20459;-53
2023/09/04 09:10:03;;;;;;;2.03;1.42;;;34.10;62.80;;;;;;5019927;28;20025;-53
2023/09/04 09:12:28;;;;;;;3.90;1.60;;;34.50;63.10;;;;;;5029197;28;20140;-53
2023/09/04 09:14:57;;;;;;;1.60;1.30;;;34.30;62.10;;;;;;5037583;28;20037;-53
2023/09/04 09:17:23;;;;;;;1.70;1.33;;;34.70;62.50;;;;;;5026317;28;20084;-53
2023/09/04 09:19:48;;;;;;;2.88;1.67;;;34.30;60.20;;;;;;5044534;28;20081;-53
2023/09/04 09:22:19;;;;;;;2.40;1.65;;;34.00;63.30;;;;;;5024341;28;20030;-53
2023/09/04 09:24:53;;;;;;;3.25;2.00;;;34.70;64.10;;;;;;5021052;28;20486;-53
2023/09/04 09:27:24;;;;;;;4.05;1.70;;;35.20;60.90;;;;;;5020274;28;20034;-53
2023/09/04 09:29:50;;;;;;;3.17;1.67;;;35.90;59.70;;;;;;5036472;28;20018;-53
2023/09/04 09:32:17;;;;;;;3.17;1.77;;;35.20;59.20;;;;;;5020249;28;20034;-53
2023/09/04 09:34:51;;;;;;;3.78;1.70;;;35.70;62.30;;;;;;5018501;28;20018;-53
2023/09/04 09:37:17;;;;;;;2.47;1.10;;;35.50;60.70;;;;;;5023594;28;20030;-53
2023/09/04 09:39:43;;;;;;;4.68;1.70;;;35.70;60.20;;;;;;5021586;28;20056;-53
2023/09/04 09:42:10;;;;;;;2.30;1.50;;;35.90;59.80;;;;;;5030315;28;20542;-53
2023/09/04 09:44:35;;;;;;;2.22;1.42;;;35.50;60.50;;;;;;5021177;28;20031;-53
2023/09/04 09:47:01;;;;;;;2.15;1.90;;;35.30;59.60;;;;;;5025911;28;20029;-53
2023/09/04 09:49:29;;;;;;;4.28;1.50;;;35.00;59.70;;;;;;5025719;28;20040;-53
2023/09/04 09:51:55;;;;;;;1.92;1.38;;;36.20;59.50;;;;;;5042363;28;20061;-53
2023/09/04 09:54:36;;;;;;;2.15;1.38;;;36.40;58.20;;;;;;5023026;28;20069;-54
2023/09/04 09:57:08;;;;;;;2.67;1.40;;;36.10;57.50;;;;;;5042581;28;20156;-53
2023/09/04 09:59:48;;;;;;;2.17;1.63;;;36.50;58.90;;;;;;5031721;28;20100;-53
2023/09/04 10:02:21;;;;;;;1.95;1.23;;;35.70;58.50;;;;;;5031453;28;20040;-53
2023/09/04 10:04:47;;;;;;;2.55;1.40;;;37.00;57.40;;;;;;5026588;28;20026;-53
2023/09/04 10:07:32;;;;;;;7.38;1.67;;;36.50;59.50;;;;;;5021415;28;20034;-54
2023/09/04 10:10:03;;;;;;;4.63;1.55;;;36.50;56.50;;;;;;5023484;28;20017;-54
2023/09/04 10:12:48;;;;;;;5.13;1.88;;;36.20;58.40;;;;;;5017662;28;20022;-54
2023/09/04 10:15:20;;;;;;;2.08;1.63;;;36.60;57.00;;;;;;5023799;28;20022;-54
2023/09/04 10:18:02;;;;;;;2.05;1.63;;;36.70;57.10;;;;;;5026448;28;20045;-54
2023/09/04 10:20:28;;;;;;;2.78;1.70;;;35.90;57.30;;;;;;5031210;28;20022;-54
2023/09/04 10:23:06;;;;;;;3.47;1.73;;;35.60;57.70;;;;;;5030029;28;20025;-54
2023/09/04 10:25:44;;;;;;;4.97;2.42;;;35.80;57.10;;;;;;5038530;28;20120;-54
2023/09/04 10:28:45;;;;;;;2.28;1.80;;;35.70;59.80;;;;;;5023724;28;20117;-54
2023/09/04 10:31:11;;;;;;;1.52;1.42;;;36.30;57.60;;;;;;5021830;28;20261;-53
2023/09/04 10:33:38;;;;;;;2.38;1.55;;;36.30;56.80;;;;;;5037626;28;20022;-53
2023/09/04 10:36:05;;;;;;;3.08;1.63;;;36.40;57.30;;;;;;5029117;28;20560;-53
2023/09/04 10:38:31;;;;;;;3.60;1.67;;;37.20;59.50;;;;;;5023913;28;20041;-54
2023/09/04 10:40:57;;;;;;;4.55;1.70;;;36.10;57.70;;;;;;5028636;28;20503;-54
2023/09/04 10:43:44;;;;;;;1.67;1.58;;;35.70;59.30;;;;;;5044155;28;20112;-53
2023/09/04 10:46:11;;;;;;;2.15;1.50;;;36.70;57.20;;;;;;5043700;28;20483;-53
2023/09/04 10:48:46;;;;;;;2.60;1.50;;;37.40;56.90;;;;;;5028825;28;20444;-53
2023/09/04 10:51:29;;;;;;;2.35;1.65;;;37.90;58.60;;;;;;5028805;28;20359;-53
2023/09/04 10:54:15;;;;;;;2.67;1.67;;;37.80;56.10;;;;;;5029569;28;20056;-53
2023/09/04 10:57:07;;;;;;;3.10;1.45;;;37.20;57.70;;;;;;5027964;28;20491;-53
2023/09/04 10:59:53;;;;;;;3.35;2.28;;;37.80;57.50;;;;;;5025633;28;20032;-53
2023/09/04 11:02:33;;;;;;;1.85;1.42;;;38.00;56.10;;;;;;5017974;28;20495;-53
2023/09/04 11:05:00;;;;;;;2.15;1.70;;;37.80;54.10;;;;;;5028865;28;20052;-54
2023/09/04 11:07:28;;;;;;;2.05;1.65;;;36.60;55.90;;;;;;5042747;28;20553;-53
2023/09/04 11:09:59;;;;;;;1.27;1.05;;;36.40;54.90;;;;;;5028023;28;20423;-53
2023/09/04 11:12:26;;;;;;;1.58;1.48;;;37.40;56.40;;;;;;5029298;28;20089;-53
2023/09/04 11:14:54;;;;;;;2.25;1.70;;;37.60;56.00;;;;;;5028967;28;20026;-53
2023/09/04 11:17:27;;;;;;;2.05;1.45;;;36.50;55.80;;;;;;5043741;28;20128;-53
2023/09/04 11:19:52;;;;;;;2.05;1.55;;;36.20;57.60;;;;;;5021448;28;20030;-53
2023/09/04 11:22:26;;;;;;;3.42;1.52;;;36.20;55.60;;;;;;5043995;28;20562;-53
2023/09/04 11:24:55;;;;;;;2.33;1.48;;;36.30;58.80;;;;;;5028840;28;20163;-53
2023/09/04 11:27:23;;;;;;;2.72;1.75;;;37.60;55.40;;;;;;5026446;28;20033;-53
2023/09/04 11:29:49;;;;;;;1.58;1.48;;;37.50;56.00;;;;;;5034657;28;20472;-54
2023/09/04 11:32:16;;;;;;;3.05;1.60;;;36.70;57.60;;;;;;5027292;28;20087;-53
2023/09/04 11:34:43;;;;;;;2.03;1.42;;;36.80;57.60;;;;;;5020868;28;20041;-54
2023/09/04 11:37:11;;;;;;;2.28;1.30;;;36.70;57.70;;;;;;5024770;28;20121;-54
2023/09/04 11:39:57;;;;;;;1.92;1.45;;;36.90;55.80;;;;;;5027184;28;20065;-53
2023/09/04 11:42:23;;;;;;;1.85;1.50;;;37.80;54.30;;;;;;5029099;28;20084;-53
2023/09/04 11:44:49;;;;;;;2.33;1.48;;;37.90;53.60;;;;;;5022271;28;20508;-54
2023/09/04 11:47:19;;;;;;;2.58;1.80;;;37.00;54.20;;;;;;5021854;28;20037;-54
2023/09/04 11:49:47;;;;;;;2.30;1.60;;;36.60;54.20;;;;;;5022490;28;20060;-54
2023/09/04 11:52:15;;;;;;;2.85;1.60;;;36.50;57.00;;;;;;5027271;28;20034;-53
2023/09/04 11:54:41;;;;;;;3.28;1.77;;;36.20;58.70;;;;;;5019647;28;20273;-53
2023/09/04 11:57:09;;;;;;;2.10;1.40;;;36.10;56.50;;;;;;5028883;28;20463;-53
2023/09/04 11:59:38;;;;;;;3.15;1.90;;;36.40;56.00;;;;;;5023404;28;20029;-54
2023/09/04 12:02:06;;;;;;;2.50;1.85;;;36.50;57.00;;;;;;5028915;28;20272;-53
2023/09/04 12:04:32;;;;;;;3.33;1.60;;;36.00;56.90;;;;;;5045801;28;20108;-54
2023/09/04 12:07:05;;;;;;;2.03;1.55;;;36.20;57.60;;;;;;5021653;28;20117;-54
2023/09/04 12:09:33;;;;;;;2.08;1.40;;;36.30;57.30;;;;;;5019159;28;20033;-53
2023/09/04 12:12:01;;;;;;;2.17;1.30;;;36.20;55.30;;;;;;5025761;28;20075;-54
2023/09/04 12:14:27;;;;;;;2.05;1.23;;;36.40;58.10;;;;;;5019893;28;20022;-53
2023/09/04 12:16:53;;;;;;;4.65;1.80;;;36.10;55.90;;;;;;5031282;28;20033;-53
2023/09/04 12:19:23;;;;;;;2.90;1.52;;;35.20;57.00;;;;;;5029054;28;20103;-53
2023/09/04 12:21:48;;;;;;;1.67;1.40;;;34.90;60.30;;;;;;5023211;28;20026;-52
2023/09/04 12:24:15;;;;;;;3.70;1.55;;;34.40;57.70;;;;;;5030417;28;20026;-53
2023/09/04 12:26:42;;;;;;;2.83;1.70;;;33.30;59.10;;;;;;5028644;28;20021;-53
2023/09/04 12:29:08;;;;;;;1.67;1.45;;;32.90;61.00;;;;;;5027415;28;20025;-53
2023/09/04 12:31:34;;;;;;;1.70;1.60;;;32.50;60.80;;;;;;5023636;28;20022;-52
2023/09/04 12:34:01;;;;;;;2.53;1.73;;;32.10;59.20;;;;;;5023849;28;20479;-53
2023/09/04 12:36:30;;;;;;;4.85;1.88;;;32.00;62.00;;;;;;5022078;28;20172;-53
2023/09/04 12:38:56;;;;;;;4.55;1.60;;;31.40;62.30;;;;;;5024929;28;20032;-53
2023/09/04 12:41:22;;;;;;;3.70;1.70;;;31.50;61.80;;;;;;5023382;28;20046;-52
2023/09/04 12:43:47;;;;;;;2.55;1.60;;;31.70;62.50;;;;;;5036677;28;20025;-52
2023/09/04 12:46:13;;;;;;;3.90;1.55;;;31.60;61.60;;;;;;5021780;28;20088;-53